Time;durP1;ratioP1;P1;durP2;ratioP2;P2;SDS_P1;SDS_P2;PMS_P1;PMS_P2;Temp;Humidity;BMP_temperature;BMP_pressure;BME280_temperature;BME280_humidity;BME280_pressure;Samples;Min_cycle;Max_cycle;Signal;HPM_P1;HPM_P2
2023/05/27 00:00:42;;;;;;;20.77;12.20;;;19.00;99.90;;;;;;6184529;23;20009;-91
2023/05/27 00:03:08;;;;;;;17.50;11.32;;;19.00;99.90;;;;;;6182068;23;20031;-92
2023/05/27 00:05:34;;;;;;;30.50;13.00;;;19.00;99.90;;;;;;6182258;23;20004;-91
2023/05/27 00:08:04;;;;;;;26.40;12.75;;;18.90;99.90;;;;;;6182372;23;20054;-91
2023/05/27 00:10:34;;;;;;;19.35;11.75;;;18.90;99.90;;;;;;6166409;23;20083;-90
2023/05/27 00:13:00;;;;;;;22.40;11.48;;;18.90;99.90;;;;;;6166161;23;20008;-91
2023/05/27 00:15:26;;;;;;;25.13;12.48;;;18.90;99.90;;;;;;6166303;23;20083;-92
2023/05/27 00:17:54;;;;;;;22.48;11.98;;;18.90;99.90;;;;;;6165249;23;20091;-91
2023/05/27 00:20:22;;;;;;;19.67;12.10;;;18.80;99.90;;;;;;6191014;23;20012;-95
2023/05/27 00:22:50;;;;;;;22.13;11.95;;;18.80;99.90;;;;;;6166916;23;20006;-91
2023/05/27 00:25:20;;;;;;;22.40;11.75;;;18.80;99.90;;;;;;6166261;23;20333;-90
2023/05/27 00:27:47;;;;;;;20.55;10.73;;;18.80;99.90;;;;;;6166270;23;20104;-94
2023/05/27 00:30:14;;;;;;;21.20;12.73;;;18.80;99.90;;;;;;6190943;23;20009;-90
2023/05/27 00:32:40;;;;;;;25.67;12.55;;;18.80;99.90;;;;;;6165912;23;20008;-93
2023/05/27 00:35:07;;;;;;;17.90;11.00;;;18.80;99.90;;;;;;6166297;23;20051;-90
2023/05/27 00:37:34;;;;;;;17.80;11.25;;;18.80;99.90;;;;;;6166284;23;20039;-91
2023/05/27 00:40:00;;;;;;;19.40;11.80;;;18.80;99.90;;;;;;6190991;23;20008;-90
2023/05/27 00:42:27;;;;;;;17.17;10.55;;;18.80;99.90;;;;;;6190685;23;20008;-90
2023/05/27 00:44:53;;;;;;;19.52;12.15;;;18.80;99.90;;;;;;6166018;23;20383;-91
2023/05/27 00:47:25;;;;;;;26.00;11.98;;;18.80;99.90;;;;;;6166083;23;20005;-92
2023/05/27 00:49:53;;;;;;;23.05;11.07;;;18.80;99.90;;;;;;6190659;23;20015;-91
2023/05/27 00:52:25;;;;;;;25.60;11.05;;;18.80;99.90;;;;;;6165789;23;20090;-92
2023/05/27 00:54:53;;;;;;;20.20;10.57;;;18.80;99.90;;;;;;6190807;23;20374;-91
2023/05/27 00:57:23;;;;;;;19.42;10.65;;;18.80;99.90;;;;;;6165889;23;20008;-92
2023/05/27 00:59:49;;;;;;;21.08;11.18;;;18.90;99.90;;;;;;6166008;23;20389;-91
2023/05/27 01:02:15;;;;;;;20.52;10.63;;;18.90;99.90;;;;;;6180045;23;20000;-90
2023/05/27 01:04:42;;;;;;;26.98;11.50;;;18.80;99.90;;;;;;6166509;23;20465;-91
2023/05/27 01:07:22;;;;;;;22.95;10.88;;;18.90;99.90;;;;;;6181969;23;20078;-91
2023/05/27 01:10:34;;;;;;;18.65;10.73;;;18.80;99.90;;;;;;6166178;23;20015;-91
2023/05/27 01:13:23;;;;;;;18.35;10.70;;;18.80;99.90;;;;;;6186585;23;20079;-91
2023/05/27 01:15:53;;;;;;;29.77;11.18;;;18.80;99.90;;;;;;6165929;23;20016;-91
2023/05/27 01:18:23;;;;;;;27.33;10.40;;;18.80;99.90;;;;;;6190928;23;20063;-91
2023/05/27 01:20:51;;;;;;;23.83;10.48;;;18.80;99.90;;;;;;6190488;23;20430;-92
2023/05/27 01:23:18;;;;;;;21.33;9.65;;;18.80;99.90;;;;;;6165689;23;20016;-90
2023/05/27 01:25:44;;;;;;;21.45;11.25;;;18.80;99.90;;;;;;6165352;23;20009;-93
2023/05/27 01:28:11;;;;;;;19.17;10.10;;;18.70;99.90;;;;;;6165818;23;20312;-93
2023/05/27 01:30:38;;;;;;;32.05;10.65;;;18.70;99.90;;;;;;6165597;23;20009;-92
2023/05/27 01:33:13;;;;;;;17.98;10.25;;;18.70;99.90;;;;;;6165610;23;20457;-94
2023/05/27 01:35:49;;;;;;;23.02;10.70;;;18.70;99.90;;;;;;6165596;23;20063;-93
2023/05/27 01:38:18;;;;;;;22.55;10.90;;;18.70;99.90;;;;;;6165534;23;20035;-94
2023/05/27 01:40:47;;;;;;;24.10;10.68;;;18.70;99.90;;;;;;6190599;23;20012;-93
2023/05/27 01:43:17;;;;;;;20.70;10.95;;;18.70;99.90;;;;;;6165477;23;20005;-93
2023/05/27 01:45:45;;;;;;;20.13;10.52;;;18.60;99.90;;;;;;6190507;23;20004;-94
2023/05/27 01:48:11;;;;;;;20.55;10.02;;;18.70;99.90;;;;;;6165374;23;20343;-92
2023/05/27 01:50:38;;;;;;;24.55;11.10;;;18.60;99.90;;;;;;6165698;23;20008;-91
2023/05/27 01:53:06;;;;;;;17.95;11.07;;;18.60;99.90;;;;;;6165719;23;20016;-94
2023/05/27 01:55:34;;;;;;;19.83;10.27;;;18.60;99.90;;;;;;6190086;23;20021;-93
2023/05/27 01:58:01;;;;;;;20.02;10.30;;;18.60;99.90;;;;;;6166029;23;20001;-94
2023/05/27 02:00:28;;;;;;;25.52;10.57;;;18.60;99.90;;;;;;6165561;23;20023;-94
2023/05/27 02:02:54;;;;;;;20.50;10.35;;;18.60;99.90;;;;;;6165668;23;20009;-93
2023/05/27 02:05:21;;;;;;;19.98;10.48;;;18.60;99.90;;;;;;6165384;23;20008;-94
2023/05/27 02:07:48;;;;;;;21.40;10.18;;;18.60;99.90;;;;;;6165489;23;20338;-94
2023/05/27 02:10:14;;;;;;;21.70;11.10;;;18.60;99.90;;;;;;6165549;23;20083;-93
2023/05/27 02:12:41;;;;;;;22.80;10.23;;;18.60;99.90;;;;;;6165471;23;20004;-93
2023/05/27 02:15:08;;;;;;;19.10;10.60;;;18.60;99.90;;;;;;6165257;23;20044;-94
2023/05/27 02:17:36;;;;;;;23.23;10.30;;;18.70;99.90;;;;;;6165520;23;20027;-94
2023/05/27 02:20:03;;;;;;;23.40;10.90;;;18.60;99.90;;;;;;6190175;23;20043;-94
2023/05/27 02:22:30;;;;;;;20.33;10.70;;;18.70;99.90;;;;;;6165513;23;20004;-93
2023/05/27 02:24:56;;;;;;;22.58;10.98;;;18.60;99.90;;;;;;6165379;23;20013;-93
2023/05/27 02:27:22;;;;;;;22.67;10.48;;;18.70;99.90;;;;;;6165416;23;20411;-93
2023/05/27 02:29:49;;;;;;;25.05;10.63;;;18.70;99.90;;;;;;6190172;23;20009;-93
2023/05/27 02:32:16;;;;;;;28.88;10.80;;;18.60;99.90;;;;;;6191709;23;20001;-92
2023/05/27 02:34:44;;;;;;;20.25;9.75;;;18.70;99.90;;;;;;6168459;23;20402;-92
2023/05/27 02:37:11;;;;;;;28.67;11.57;;;18.60;99.90;;;;;;6189880;23;20380;-94
2023/05/27 02:39:40;;;;;;;21.63;10.27;;;18.70;99.90;;;;;;6190330;23;20430;-92
2023/05/27 02:42:07;;;;;;;23.10;11.32;;;18.60;99.90;;;;;;6166354;23;20004;-94
2023/05/27 02:44:33;;;;;;;24.70;10.73;;;18.70;99.90;;;;;;6166997;23;20012;-94
2023/05/27 02:47:00;;;;;;;27.48;11.32;;;18.70;99.90;;;;;;6166967;23;19996;-93
2023/05/27 02:49:27;;;;;;;34.90;11.15;;;18.70;99.90;;;;;;6167369;23;20342;-92
2023/05/27 02:51:54;;;;;;;26.95;10.02;;;18.60;99.90;;;;;;6167117;23;20316;-93
2023/05/27 02:54:20;;;;;;;29.02;10.27;;;18.60;99.90;;;;;;6167045;23;20454;-93
2023/05/27 02:56:46;;;;;;;19.95;10.07;;;18.60;99.90;;;;;;6167258;23;20024;-92
2023/05/27 02:59:16;;;;;;;25.77;10.82;;;18.50;99.90;;;;;;6167066;23;20008;-92
2023/05/27 03:01:43;;;;;;;31.15;11.35;;;18.50;99.90;;;;;;6166685;23;20008;-93
2023/05/27 03:04:10;;;;;;;18.67;10.10;;;18.50;99.90;;;;;;6167006;23;20011;-92
2023/05/27 03:06:36;;;;;;;19.20;9.98;;;18.50;99.90;;;;;;6166729;23;20320;-93
2023/05/27 03:09:04;;;;;;;23.45;10.95;;;18.50;99.90;;;;;;6167352;23;20393;-94
2023/05/27 03:11:30;;;;;;;19.20;10.05;;;18.50;99.90;;;;;;6167043;23;20024;-93
2023/05/27 03:14:00;;;;;;;23.13;10.10;;;18.50;99.90;;;;;;6167277;23;20100;-91
2023/05/27 03:16:27;;;;;;;26.08;11.00;;;18.50;99.90;;;;;;6166921;23;20072;-92
2023/05/27 03:18:53;;;;;;;23.23;10.38;;;18.40;99.90;;;;;;6167048;23;20073;-94
2023/05/27 03:21:23;;;;;;;17.33;9.82;;;18.50;99.90;;;;;;6166854;23;20442;-93
2023/05/27 03:23:49;;;;;;;26.90;11.80;;;18.50;99.90;;;;;;6166764;23;20091;-93
2023/05/27 03:26:16;;;;;;;28.73;10.63;;;18.40;99.90;;;;;;6166713;23;20009;-93
2023/05/27 03:28:42;;;;;;;22.58;11.07;;;18.50;99.90;;;;;;6166530;23;20008;-91
2023/05/27 03:31:12;;;;;;;21.58;10.02;;;18.50;99.90;;;;;;6166843;23;20473;-93
2023/05/27 03:33:49;;;;;;;25.67;10.50;;;18.50;99.90;;;;;;6169116;23;20081;-92
2023/05/27 03:36:15;;;;;;;27.58;11.43;;;18.50;99.90;;;;;;6166381;23;20008;-93
2023/05/27 03:38:42;;;;;;;21.85;11.13;;;18.50;99.90;;;;;;6166440;23;20078;-92
2023/05/27 03:41:09;;;;;;;19.85;9.93;;;18.50;99.90;;;;;;6192016;23;20040;-93
2023/05/27 03:43:38;;;;;;;27.23;10.65;;;18.50;99.90;;;;;;6166861;23;20008;-92
2023/05/27 03:46:06;;;;;;;24.80;10.45;;;18.50;99.90;;;;;;6166515;23;20012;-92
2023/05/27 03:48:33;;;;;;;26.70;11.50;;;18.60;99.90;;;;;;6166212;23;20001;-92
2023/05/27 03:51:00;;;;;;;24.80;10.45;;;18.60;99.90;;;;;;6166496;23;20012;-91
2023/05/27 03:53:27;;;;;;;25.83;10.27;;;18.60;99.90;;;;;;6166363;23;20008;-94
2023/05/27 03:55:53;;;;;;;28.52;11.32;;;18.60;99.90;;;;;;6166564;23;20435;-93
2023/05/27 03:58:19;;;;;;;29.25;11.13;;;18.70;99.90;;;;;;6166402;23;20016;-93
2023/05/27 04:00:47;;;;;;;29.35;11.55;;;18.70;99.90;;;;;;6166289;23;20004;-92
2023/05/27 04:03:15;;;;;;;33.60;11.77;;;18.70;99.90;;;;;;6190795;23;20036;-91
2023/05/27 04:05:45;;;;;;;23.40;11.50;;;18.80;99.90;;;;;;6165943;23;20016;-93
2023/05/27 04:08:13;;;;;;;27.90;11.00;;;18.90;99.90;;;;;;6166078;23;20508;-93
2023/05/27 04:10:41;;;;;;;23.95;10.90;;;18.90;99.90;;;;;;6166303;23;20431;-91
2023/05/27 04:13:08;;;;;;;19.95;10.98;;;19.00;99.90;;;;;;6166149;23;20012;-92
2023/05/27 04:15:34;;;;;;;31.10;10.93;;;19.10;99.90;;;;;;6166054;23;20066;-91
2023/05/27 04:18:01;;;;;;;20.83;10.30;;;19.10;99.90;;;;;;6166275;23;20016;-91
2023/05/27 04:20:36;;;;;;;16.73;10.15;;;19.20;99.90;;;;;;6166322;23;20008;-92
2023/05/27 04:23:04;;;;;;;22.58;10.10;;;19.40;99.90;;;;;;6190912;23;20004;-92
2023/05/27 04:25:30;;;;;;;22.23;10.98;;;19.50;99.90;;;;;;6166065;23;20482;-91
2023/05/27 04:28:06;;;;;;;19.20;11.43;;;19.60;99.90;;;;;;6190811;23;20012;-93
2023/05/27 04:30:39;;;;;;;20.98;11.55;;;19.60;99.90;;;;;;6166875;23;20087;-94
2023/05/27 04:33:15;;;;;;;25.77;11.98;;;19.70;99.90;;;;;;6167408;23;20442;-92
2023/05/27 04:35:43;;;;;;;20.30;10.25;;;19.70;99.90;;;;;;6166288;23;20099;-93
2023/05/27 04:38:16;;;;;;;17.48;10.85;;;20.00;99.90;;;;;;6166838;23;20021;-93
2023/05/27 04:41:08;;;;;;;18.40;12.10;;;20.50;99.90;;;;;;6155554;23;20013;-95
2023/05/27 04:43:58;;;;;;;19.60;13.57;;;21.60;99.90;;;;;;6130518;23;20092;-94
2023/05/27 04:46:29;;;;;;;26.92;15.23;;;22.50;99.90;;;;;;6130538;23;20006;-92
2023/05/27 04:48:57;;;;;;;17.33;14.50;;;22.80;99.90;;;;;;6130572;23;20440;-94
2023/05/27 04:51:23;;;;;;;21.25;15.10;;;23.20;99.90;;;;;;6130732;23;20001;-93
2023/05/27 04:53:51;;;;;;;20.08;17.40;;;23.80;99.90;;;;;;6130566;23;20013;-93
2023/05/27 04:56:19;;;;;;;26.25;18.42;;;24.10;99.90;;;;;;6131016;23;20443;-93
2023/05/27 04:58:48;;;;;;;27.05;18.92;;;24.60;99.90;;;;;;6130448;23;20014;-92
2023/05/27 05:01:20;;;;;;;24.95;19.40;;;24.50;99.90;;;;;;6130424;23;20009;-91
2023/05/27 05:04:13;;;;;;;27.70;19.50;;;24.40;99.90;;;;;;6130258;23;20093;-93
2023/05/27 05:06:45;;;;;;;28.17;19.13;;;24.10;99.90;;;;;;6130497;23;20436;-93
2023/05/27 05:09:11;;;;;;;22.88;18.13;;;23.30;99.90;;;;;;6130218;23;20105;-93
2023/05/27 05:11:39;;;;;;;22.10;19.75;;;23.70;99.90;;;;;;6159471;23;20007;-94
2023/05/27 05:14:08;;;;;;;21.42;19.33;;;24.30;99.90;;;;;;6190794;23;20025;-92
2023/05/27 05:16:34;;;;;;;22.15;19.75;;;24.80;99.90;;;;;;6165995;23;20031;-90
2023/05/27 05:19:01;;;;;;;23.00;20.35;;;24.80;99.90;;;;;;6165786;23;20087;-93
2023/05/27 05:21:33;;;;;;;21.60;19.13;;;25.30;99.90;;;;;;6215473;23;20389;-91
2023/05/27 05:24:00;;;;;;;20.15;18.02;;;25.90;99.90;;;;;;6165936;23;20008;-92
2023/05/27 05:26:27;;;;;;;23.08;16.45;;;25.90;99.90;;;;;;6165607;23;20033;-92
2023/05/27 05:28:54;;;;;;;18.27;16.40;;;26.10;99.90;;;;;;6165728;23;20015;-95
2023/05/27 05:31:21;;;;;;;19.50;17.60;;;26.60;99.90;;;;;;6165659;23;20079;-94
2023/05/27 05:33:48;;;;;;;20.13;18.08;;;26.40;99.90;;;;;;6166133;23;20040;-94
2023/05/27 05:36:15;;;;;;;21.25;19.17;;;26.40;99.90;;;;;;6165534;23;20008;-94
2023/05/27 05:38:56;;;;;;;20.05;18.17;;;26.60;99.90;;;;;;6190323;23;20347;-94
2023/05/27 05:41:22;;;;;;;20.48;18.60;;;27.00;99.90;;;;;;6190397;23;20011;-93
2023/05/27 05:43:50;;;;;;;22.38;20.00;;;27.30;99.90;;;;;;6166032;23;20371;-91
2023/05/27 05:46:16;;;;;;;22.23;20.13;;;27.90;99.90;;;;;;6165569;23;20078;-92
2023/05/27 05:48:44;;;;;;;22.60;20.45;;;27.60;99.90;;;;;;6165929;23;20008;-92
2023/05/27 05:51:14;;;;;;;23.30;20.92;;;27.20;99.90;;;;;;6166292;23;20015;-93
2023/05/27 05:53:44;;;;;;;22.95;20.73;;;26.60;99.90;;;;;;6165991;23;20116;-92
2023/05/27 05:56:11;;;;;;;22.08;20.13;;;26.90;99.90;;;;;;6190398;23;20091;-95
2023/05/27 05:58:37;;;;;;;22.63;20.23;;;27.10;99.90;;;;;;6165685;23;20012;-92
2023/05/27 06:01:06;;;;;;;22.80;20.58;;;27.00;99.90;;;;;;6191358;23;20012;-95
2023/05/27 06:03:52;;;;;;;23.13;20.92;;;26.70;99.90;;;;;;6169126;23;20070;-93
2023/05/27 06:06:33;;;;;;;23.02;20.85;;;26.70;99.90;;;;;;6190101;23;20016;-92
2023/05/27 06:09:15;;;;;;;23.05;20.95;;;27.30;99.90;;;;;;6193902;23;20008;-91
2023/05/27 06:11:42;;;;;;;23.85;21.05;;;27.60;99.90;;;;;;6165565;23;20013;-91
2023/05/27 06:14:08;;;;;;;22.42;20.23;;;27.70;99.90;;;;;;6165458;23;20087;-93
2023/05/27 06:16:35;;;;;;;22.10;20.17;;;27.30;99.90;;;;;;6166965;23;20016;-93
2023/05/27 06:19:03;;;;;;;22.20;20.27;;;27.10;99.90;;;;;;6172645;23;20051;-93
2023/05/27 06:21:31;;;;;;;21.98;20.13;;;26.30;99.90;;;;;;6192044;23;20091;-92
2023/05/27 06:24:28;;;;;;;20.45;18.85;;;26.10;99.90;;;;;;6112536;23;20057;-93
2023/05/27 06:27:07;;;;;;;21.00;19.35;;;26.80;99.90;;;;;;6192241;23;20427;-91
2023/05/27 06:29:34;;;;;;;22.52;20.80;;;26.60;99.90;;;;;;6194543;23;20009;-94
2023/05/27 09:37:32;;;;;;;24.15;22.45;;;27.90;99.90;;;;;;6253559;22;20027;-92
2023/05/27 09:40:14;;;;;;;24.35;22.65;;;27.80;99.90;;;;;;6227281;22;20007;-92
2023/05/27 11:07:37;;;;;;;24.63;22.95;;;26.90;99.90;;;;;;6292196;22;20053;-94
2023/05/27 11:10:13;;;;;;;24.95;23.35;;;26.70;99.90;;;;;;6260232;22;20020;-93
2023/05/27 11:21:39;;;;;;;;;;;;;;;;;;;;;
2023/05/27 13:07:41;;;;;;;;;;;;;;;;;;;;;
2023/05/27 23:19:58;;;;;;;16.77;15.02;;;19.20;99.90;;;;;;6262513;22;20019;-94
2023/05/27 23:32:50;;;;;;;;;;;;;;;;;;;;;
2023/05/27 23:35:33;;;;;;;18.58;14.70;;;19.20;99.90;;;;;;6188746;23;20077;-93
2023/05/27 23:38:10;;;;;;;18.38;15.23;;;19.10;99.90;;;;;;6140454;23;20001;-94
2023/05/27 23:40:54;;;;;;;17.75;14.38;;;19.10;99.90;;;;;;6165308;23;20009;-91
2023/05/27 23:43:27;;;;;;;19.08;14.65;;;19.10;99.90;;;;;;6164464;23;20005;-93
